Creek Data

    Home     View Charts     View Raw Data     Messages

ID Distance Battery Voltage Battery Current Internal Temp Internal Humidity External Temp Solar Input rssi snr Time Stamp Record
35461 0.0 4.01 -5 52 41 52 0 -79 7 03/19/2025 08:45 PM 17224
35460 0.0 4.01 -5 52 41 53 0 -79 8 03/19/2025 08:30 PM 17223
35459 0.0 4.06 -5 53 41 54 0 -79 8 03/19/2025 08:15 PM 17222
35458 0.0 4.01 -5 53 41 54 0.1 -79 8 03/19/2025 08:00 PM 17221
35457 0.0 4.01 -5 53 41 54 0 -78 7 03/19/2025 07:45 PM 17220
35456 15.2 4.01 -5 53 42 54 0.1 -79 8 03/19/2025 07:30 PM 17219
35455 0.0 4.07 -5 54 42 53 0.7 -77 8 03/19/2025 07:15 PM 17218
35454 15.2 4.06 -9 55 43 54 4 -78 7 03/19/2025 07:00 PM 17217
35453 15.2 4.08 0 56 43 55 4.5 -78 7 03/19/2025 06:45 PM 17216
35452 0.0 4.10 8 58 43 56 4.5 -79 8 03/19/2025 06:30 PM 17215
35451 0.0 4.11 0 60 42 57 4.5 -78 7 03/19/2025 06:15 PM 17214
35450 15.2 4.13 9 61 42 58 4.5 -79 8 03/19/2025 06:00 PM 17213
35449 15.1 4.10 5 62 42 59 4.5 -79 8 03/19/2025 05:45 PM 17212
35448 0.0 4.10 23 63 42 59 4.5 -78 7 03/19/2025 05:30 PM 17211
35447 0.0 4.10 15 64 41 61 4.5 -79 7 03/19/2025 05:15 PM 17210
35446 0.0 4.10 36 64 42 62 4.5 -78 7 03/19/2025 05:00 PM 17209
35445 15.2 4.12 7 63 43 62 4.5 -79 7 03/19/2025 04:45 PM 17208
35444 0.0 4.09 38 65 43 63 4.5 -78 7 03/19/2025 04:31 PM 17207
35443 0.0 4.11 43 66 42 64 4.5 -80 7 03/19/2025 04:15 PM 17206
35442 15.2 4.03 0 69 41 63 5.1 -79 8 03/19/2025 04:00 PM 17205
35441 0.0 4.03 0 71 40 65 5.1 -78 9 03/19/2025 03:45 PM 17204
35440 15.2 4.03 0 71 40 67 5.1 -78 8 03/19/2025 03:30 PM 17203
35439 15.4 4.03 0 73 37 65 5.1 -77 7 03/19/2025 03:15 PM 17202
35438 15.2 4.03 0 69 39 66 5.1 -79 7 03/19/2025 02:45 PM 17200
35437 15.3 4.03 0 69 38 64 5.1 -78 7 03/19/2025 02:30 PM 17199